KHYR/HYR METAR and TAF weather

Enter ICAO airport designator
Station Type Date Time Source
KHYR METAR 2020/01/27 13:53 UTC NOAA

KHYR 271353Z AUTO 00000KT 10SM OVC004 M03/M05 A3000 RMK AO2 SLP177 T10331050


Station Type Date Time Source
KHYR Decoded METAR 2020/01/27 13:53 UTC NOAA

HAYWARD MUNICIPAL AIRPORT, WI, United States (KHYR) 46-01N 91-27W 370M
Jan 27, 2020 - 08:53 AM EST / 2020.01.27 1353 UTC
Wind: Calm:0
Visibility: 10 mile(s):0
Sky conditions: overcast
Temperature: 26.1 F (-3.3 C)
Dew Point: 23.0 F (-5.0 C)
Relative Humidity: 87%
Pressure (altimeter): 30 in. Hg (1015 hPa)
ob: KHYR 271353Z AUTO 00000KT 10SM OVC004 M03/M05 A3000 RMK AO2 SLP177 T10331050
cycle: 14

Station Type Date Time Source
KHYR TAF 2020/01/27 12:24 UTC NOAA

TAF KHYR 271122Z 2712/2812 00000KT 6SM BR BKN005 OVC010
TEMPO 2712/2715 4SM -FZDZSN BR SCT005 OVC010
FM271800 VRB03KT P6SM OVC010
FM280700 VRB02KT P6SM OVC009

Example: see airport list